sensor_id;sensor_type;location;lat;lon;timestamp;temperature;humidity
29551;DHT22;16488;52.396;10.696;2022-10-26T00:00:40;8.40;99.90
29551;DHT22;16488;52.396;10.696;2022-10-26T00:03:06;8.40;99.90
29551;DHT22;16488;52.396;10.696;2022-10-26T00:05:32;8.20;99.90
29551;DHT22;16488;52.396;10.696;2022-10-26T00:07:58;8.20;99.90
29551;DHT22;16488;52.396;10.696;2022-10-26T00:10:24;8.20;99.90
29551;DHT22;16488;52.396;10.696;2022-10-26T00:12:50;8.30;99.90
29551;DHT22;16488;52.396;10.696;2022-10-26T00:15:17;8.30;99.90
29551;DHT22;16488;52.396;10.696;2022-10-26T00:17:43;8.40;99.90
29551;DHT22;16488;52.396;10.696;2022-10-26T00:20:09;8.30;99.90
29551;DHT22;16488;52.396;10.696;2022-10-26T00:22:36;8.20;99.90
29551;DHT22;16488;52.396;10.696;2022-10-26T00:25:01;8.30;99.90
29551;DHT22;16488;52.396;10.696;2022-10-26T00:27:27;8.20;99.90
29551;DHT22;16488;52.396;10.696;2022-10-26T00:29:52;8.10;99.90
29551;DHT22;16488;52.396;10.696;2022-10-26T00:32:18;8.00;99.90
29551;DHT22;16488;52.396;10.696;2022-10-26T00:34:43;8.00;99.90
29551;DHT22;16488;52.396;10.696;2022-10-26T00:37:09;7.90;99.90
29551;DHT22;16488;52.396;10.696;2022-10-26T00:39:34;7.90;99.90
29551;DHT22;16488;52.396;10.696;2022-10-26T00:42:00;7.90;99.90
29551;DHT22;16488;52.396;10.696;2022-10-26T00:44:58;7.90;99.90
29551;DHT22;16488;52.396;10.696;2022-10-26T00:47:39;7.80;99.90
29551;DHT22;16488;52.396;10.696;2022-10-26T00:50:14;7.70;99.90
29551;DHT22;16488;52.396;10.696;2022-10-26T00:52:42;7.60;99.90
29551;DHT22;16488;52.396;10.696;2022-10-26T00:55:08;7.60;99.90
29551;DHT22;16488;52.396;10.696;2022-10-26T00:57:36;7.60;99.90
29551;DHT22;16488;52.396;10.696;2022-10-26T01:00:04;7.70;99.90
29551;DHT22;16488;52.396;10.696;2022-10-26T01:02:30;7.80;99.90
29551;DHT22;16488;52.396;10.696;2022-10-26T01:04:57;7.80;99.90
29551;DHT22;16488;52.396;10.696;2022-10-26T01:07:23;7.80;99.90
29551;DHT22;16488;52.396;10.696;2022-10-26T01:09:50;7.70;99.90
29551;DHT22;16488;52.396;10.696;2022-10-26T01:12:15;7.70;99.90
29551;DHT22;16488;52.396;10.696;2022-10-26T01:14:41;7.70;99.90
29551;DHT22;16488;52.396;10.696;2022-10-26T01:20:18;7.70;99.90
29551;DHT22;16488;52.396;10.696;2022-10-26T01:28:01;7.40;99.90
29551;DHT22;16488;52.396;10.696;2022-10-26T01:30:35;7.40;99.90
29551;DHT22;16488;52.396;10.696;2022-10-26T01:36:00;7.40;99.90
29551;DHT22;16488;52.396;10.696;2022-10-26T01:41:29;7.40;99.90
29551;DHT22;16488;52.396;10.696;2022-10-26T01:43:58;7.40;99.90
29551;DHT22;16488;52.396;10.696;2022-10-26T01:46:31;7.50;99.90
29551;DHT22;16488;52.396;10.696;2022-10-26T01:49:01;7.50;99.90
29551;DHT22;16488;52.396;10.696;2022-10-26T01:51:29;7.50;99.90
29551;DHT22;16488;52.396;10.696;2022-10-26T01:53:57;7.40;99.90
29551;DHT22;16488;52.396;10.696;2022-10-26T01:56:25;7.30;99.90
29551;DHT22;16488;52.396;10.696;2022-10-26T02:04:45;7.10;99.90
29551;DHT22;16488;52.396;10.696;2022-10-26T02:07:17;7.10;99.90
29551;DHT22;16488;52.396;10.696;2022-10-26T02:10:05;7.10;99.90
29551;DHT22;16488;52.396;10.696;2022-10-26T02:18:53;7.10;99.90
29551;DHT22;16488;52.396;10.696;2022-10-26T02:21:24;7.00;99.90
29551;DHT22;16488;52.396;10.696;2022-10-26T02:23:54;7.00;99.90
29551;DHT22;16488;52.396;10.696;2022-10-26T02:26:25;6.90;99.90
29551;DHT22;16488;52.396;10.696;2022-10-26T02:28:55;6.90;99.90
29551;DHT22;16488;52.396;10.696;2022-10-26T02:31:23;6.90;99.90
29551;DHT22;16488;52.396;10.696;2022-10-26T02:33:51;6.90;99.90
29551;DHT22;16488;52.396;10.696;2022-10-26T02:36:23;6.90;99.90
29551;DHT22;16488;52.396;10.696;2022-10-26T02:38:50;6.90;99.90
29551;DHT22;16488;52.396;10.696;2022-10-26T02:41:19;7.00;99.90
29551;DHT22;16488;52.396;10.696;2022-10-26T02:46:31;7.10;99.90
29551;DHT22;16488;52.396;10.696;2022-10-26T02:48:57;7.00;99.90
29551;DHT22;16488;52.396;10.696;2022-10-26T02:52:20;7.10;99.90
29551;DHT22;16488;52.396;10.696;2022-10-26T02:54:34;7.20;99.90
29551;DHT22;16488;52.396;10.696;2022-10-26T02:57:09;7.30;99.90
29551;DHT22;16488;52.396;10.696;2022-10-26T02:59:39;7.40;99.90
29551;DHT22;16488;52.396;10.696;2022-10-26T03:02:06;7.40;99.90
29551;DHT22;16488;52.396;10.696;2022-10-26T03:04:33;7.40;99.90
29551;DHT22;16488;52.396;10.696;2022-10-26T03:06:59;7.40;99.90
29551;DHT22;16488;52.396;10.696;2022-10-26T03:09:24;7.40;99.90
29551;DHT22;16488;52.396;10.696;2022-10-26T03:11:50;7.30;99.90
29551;DHT22;16488;52.396;10.696;2022-10-26T03:14:16;7.40;99.90
29551;DHT22;16488;52.396;10.696;2022-10-26T03:16:42;7.40;99.90
29551;DHT22;16488;52.396;10.696;2022-10-26T03:19:07;7.30;99.90
29551;DHT22;16488;52.396;10.696;2022-10-26T03:21:33;7.30;99.90
29551;DHT22;16488;52.396;10.696;2022-10-26T03:23:58;7.40;99.90
29551;DHT22;16488;52.396;10.696;2022-10-26T03:26:24;7.50;99.90
29551;DHT22;16488;52.396;10.696;2022-10-26T03:28:49;7.50;99.90
29551;DHT22;16488;52.396;10.696;2022-10-26T03:31:15;7.60;99.90
29551;DHT22;16488;52.396;10.696;2022-10-26T03:33:41;7.50;99.90
29551;DHT22;16488;52.396;10.696;2022-10-26T03:36:07;7.50;99.90
29551;DHT22;16488;52.396;10.696;2022-10-26T03:38:32;7.50;99.90
29551;DHT22;16488;52.396;10.696;2022-10-26T03:40:58;7.50;99.90
29551;DHT22;16488;52.396;10.696;2022-10-26T03:43:23;7.60;99.90
29551;DHT22;16488;52.396;10.696;2022-10-26T03:45:49;7.70;99.90
29551;DHT22;16488;52.396;10.696;2022-10-26T03:48:15;7.70;99.90
29551;DHT22;16488;52.396;10.696;2022-10-26T03:50:40;7.70;99.90
29551;DHT22;16488;52.396;10.696;2022-10-26T03:53:06;7.60;99.90
29551;DHT22;16488;52.396;10.696;2022-10-26T03:55:32;7.60;99.90
29551;DHT22;16488;52.396;10.696;2022-10-26T03:57:57;7.60;99.90
29551;DHT22;16488;52.396;10.696;2022-10-26T04:00:23;7.60;99.90
29551;DHT22;16488;52.396;10.696;2022-10-26T04:02:56;7.70;99.90
29551;DHT22;16488;52.396;10.696;2022-10-26T04:05:23;7.70;99.90
29551;DHT22;16488;52.396;10.696;2022-10-26T04:07:56;7.70;99.90
29551;DHT22;16488;52.396;10.696;2022-10-26T04:10:23;7.70;99.90
29551;DHT22;16488;52.396;10.696;2022-10-26T04:12:49;7.80;99.90
29551;DHT22;16488;52.396;10.696;2022-10-26T04:15:16;7.80;99.90
29551;DHT22;16488;52.396;10.696;2022-10-26T04:17:41;7.80;99.90
29551;DHT22;16488;52.396;10.696;2022-10-26T04:20:07;7.90;99.90
29551;DHT22;16488;52.396;10.696;2022-10-26T04:22:33;7.90;99.90
29551;DHT22;16488;52.396;10.696;2022-10-26T04:24:59;7.90;99.90
29551;DHT22;16488;52.396;10.696;2022-10-26T04:27:25;8.00;99.90
29551;DHT22;16488;52.396;10.696;2022-10-26T04:29:50;8.10;99.90
29551;DHT22;16488;52.396;10.696;2022-10-26T04:32:16;8.10;99.90
29551;DHT22;16488;52.396;10.696;2022-10-26T04:34:41;8.20;99.90
29551;DHT22;16488;52.396;10.696;2022-10-26T04:37:07;8.20;99.90
29551;DHT22;16488;52.396;10.696;2022-10-26T04:39:32;8.10;99.90
29551;DHT22;16488;52.396;10.696;2022-10-26T04:41:58;8.10;99.90
29551;DHT22;16488;52.396;10.696;2022-10-26T04:44:23;8.10;99.90
29551;DHT22;16488;52.396;10.696;2022-10-26T04:46:49;8.00;99.90
29551;DHT22;16488;52.396;10.696;2022-10-26T04:49:14;8.00;99.90
29551;DHT22;16488;52.396;10.696;2022-10-26T04:51:40;8.10;99.90
29551;DHT22;16488;52.396;10.696;2022-10-26T04:54:05;8.10;99.90
29551;DHT22;16488;52.396;10.696;2022-10-26T04:56:31;8.00;99.90
29551;DHT22;16488;52.396;10.696;2022-10-26T04:58:56;8.00;99.90
29551;DHT22;16488;52.396;10.696;2022-10-26T05:01:22;7.90;99.90
29551;DHT22;16488;52.396;10.696;2022-10-26T05:03:49;7.90;99.90
29551;DHT22;16488;52.396;10.696;2022-10-26T05:06:15;7.90;99.90
29551;DHT22;16488;52.396;10.696;2022-10-26T05:08:40;7.90;99.90
29551;DHT22;16488;52.396;10.696;2022-10-26T05:11:06;7.90;99.90
29551;DHT22;16488;52.396;10.696;2022-10-26T05:13:31;7.90;99.90
29551;DHT22;16488;52.396;10.696;2022-10-26T05:15:57;7.90;99.90
29551;DHT22;16488;52.396;10.696;2022-10-26T05:18:22;8.00;99.90
29551;DHT22;16488;52.396;10.696;2022-10-26T05:20:51;8.00;99.90
29551;DHT22;16488;52.396;10.696;2022-10-26T05:23:17;8.00;99.90
29551;DHT22;16488;52.396;10.696;2022-10-26T05:25:43;8.10;99.90
29551;DHT22;16488;52.396;10.696;2022-10-26T05:28:11;8.10;99.90
29551;DHT22;16488;52.396;10.696;2022-10-26T05:30:38;8.10;99.90
29551;DHT22;16488;52.396;10.696;2022-10-26T05:33:04;8.00;99.90
29551;DHT22;16488;52.396;10.696;2022-10-26T05:35:31;8.10;99.90
29551;DHT22;16488;52.396;10.696;2022-10-26T05:37:57;8.10;99.90
29551;DHT22;16488;52.396;10.696;2022-10-26T05:40:22;8.10;99.90
29551;DHT22;16488;52.396;10.696;2022-10-26T05:42:48;8.20;99.90
29551;DHT22;16488;52.396;10.696;2022-10-26T05:45:15;8.20;99.90
29551;DHT22;16488;52.396;10.696;2022-10-26T05:47:43;8.30;99.90
29551;DHT22;16488;52.396;10.696;2022-10-26T05:50:09;8.30;99.90
29551;DHT22;16488;52.396;10.696;2022-10-26T05:52:43;8.30;99.90
29551;DHT22;16488;52.396;10.696;2022-10-26T05:55:11;8.30;99.90
29551;DHT22;16488;52.396;10.696;2022-10-26T05:57:37;8.30;99.90
29551;DHT22;16488;52.396;10.696;2022-10-26T06:00:11;8.40;99.90
29551;DHT22;16488;52.396;10.696;2022-10-26T06:05:32;8.50;99.90
29551;DHT22;16488;52.396;10.696;2022-10-26T06:08:00;8.40;99.90
29551;DHT22;16488;52.396;10.696;2022-10-26T06:10:26;8.50;99.90
29551;DHT22;16488;52.396;10.696;2022-10-26T06:12:52;8.50;99.90
29551;DHT22;16488;52.396;10.696;2022-10-26T06:15:19;8.50;99.90
29551;DHT22;16488;52.396;10.696;2022-10-26T06:18:02;8.60;99.90
29551;DHT22;16488;52.396;10.696;2022-10-26T06:23:23;8.70;99.90
29551;DHT22;16488;52.396;10.696;2022-10-26T06:26:25;8.70;99.90
29551;DHT22;16488;52.396;10.696;2022-10-26T06:31:43;8.80;99.90
29551;DHT22;16488;52.396;10.696;2022-10-26T06:34:11;8.90;99.90
29551;DHT22;16488;52.396;10.696;2022-10-26T06:36:40;8.90;99.90
29551;DHT22;16488;52.396;10.696;2022-10-26T06:39:09;8.90;99.90
29551;DHT22;16488;52.396;10.696;2022-10-26T06:41:36;8.90;99.90
29551;DHT22;16488;52.396;10.696;2022-10-26T06:44:03;8.90;99.90
29551;DHT22;16488;52.396;10.696;2022-10-26T06:49:14;9.00;99.90
29551;DHT22;16488;52.396;10.696;2022-10-26T06:52:02;9.00;99.90
29551;DHT22;16488;52.396;10.696;2022-10-26T06:57:24;9.10;99.90
29551;DHT22;16488;52.396;10.696;2022-10-26T07:00:06;9.20;99.90
29551;DHT22;16488;52.396;10.696;2022-10-26T07:02:32;9.20;99.90
29551;DHT22;16488;52.396;10.696;2022-10-26T07:04:58;9.20;99.90
29551;DHT22;16488;52.396;10.696;2022-10-26T07:07:25;9.30;99.90
29551;DHT22;16488;52.396;10.696;2022-10-26T07:09:52;9.40;99.90
29551;DHT22;16488;52.396;10.696;2022-10-26T07:12:17;9.40;99.90
29551;DHT22;16488;52.396;10.696;2022-10-26T07:14:43;9.50;99.90
29551;DHT22;16488;52.396;10.696;2022-10-26T07:17:09;9.50;99.90
29551;DHT22;16488;52.396;10.696;2022-10-26T07:19:35;9.60;99.90
29551;DHT22;16488;52.396;10.696;2022-10-26T07:22:00;9.70;99.90
29551;DHT22;16488;52.396;10.696;2022-10-26T07:24:29;9.70;99.90
29551;DHT22;16488;52.396;10.696;2022-10-26T07:26:56;9.80;99.90
29551;DHT22;16488;52.396;10.696;2022-10-26T07:29:23;9.80;99.90
29551;DHT22;16488;52.396;10.696;2022-10-26T07:31:50;9.90;99.90
29551;DHT22;16488;52.396;10.696;2022-10-26T07:34:16;9.90;99.90
29551;DHT22;16488;52.396;10.696;2022-10-26T07:36:44;10.00;99.90
29551;DHT22;16488;52.396;10.696;2022-10-26T07:39:10;10.10;99.90
29551;DHT22;16488;52.396;10.696;2022-10-26T07:41:35;10.20;99.90
29551;DHT22;16488;52.396;10.696;2022-10-26T07:44:01;10.40;99.90
29551;DHT22;16488;52.396;10.696;2022-10-26T07:46:27;10.60;99.90
29551;DHT22;16488;52.396;10.696;2022-10-26T07:48:52;10.80;99.90
29551;DHT22;16488;52.396;10.696;2022-10-26T07:51:18;10.90;99.90
29551;DHT22;16488;52.396;10.696;2022-10-26T07:53:44;11.10;99.90
29551;DHT22;16488;52.396;10.696;2022-10-26T07:56:10;11.20;99.90
29551;DHT22;16488;52.396;10.696;2022-10-26T07:58:36;11.30;99.90
29551;DHT22;16488;52.396;10.696;2022-10-26T08:01:06;11.40;99.90
29551;DHT22;16488;52.396;10.696;2022-10-26T08:03:32;11.50;99.90
29551;DHT22;16488;52.396;10.696;2022-10-26T08:05:58;11.60;99.90
29551;DHT22;16488;52.396;10.696;2022-10-26T08:08:23;11.80;99.90
29551;DHT22;16488;52.396;10.696;2022-10-26T08:10:54;11.90;99.90
29551;DHT22;16488;52.396;10.696;2022-10-26T08:13:20;12.00;99.90
29551;DHT22;16488;52.396;10.696;2022-10-26T08:15:46;12.10;99.90
29551;DHT22;16488;52.396;10.696;2022-10-26T08:18:12;12.20;99.90
29551;DHT22;16488;52.396;10.696;2022-10-26T08:20:38;12.30;99.90
29551;DHT22;16488;52.396;10.696;2022-10-26T08:23:04;12.40;99.90
29551;DHT22;16488;52.396;10.696;2022-10-26T08:25:31;12.50;99.90
29551;DHT22;16488;52.396;10.696;2022-10-26T08:28:00;12.60;99.90
29551;DHT22;16488;52.396;10.696;2022-10-26T08:30:26;12.70;99.90
29551;DHT22;16488;52.396;10.696;2022-10-26T08:36:54;13.00;99.90
29551;DHT22;16488;52.396;10.696;2022-10-26T08:39:19;13.10;99.90
29551;DHT22;16488;52.396;10.696;2022-10-26T08:41:46;13.20;99.90
29551;DHT22;16488;52.396;10.696;2022-10-26T08:44:24;13.30;99.90
29551;DHT22;16488;52.396;10.696;2022-10-26T08:47:06;13.40;99.90
29551;DHT22;16488;52.396;10.696;2022-10-26T08:49:44;13.50;99.90
29551;DHT22;16488;52.396;10.696;2022-10-26T08:52:14;13.60;99.90
29551;DHT22;16488;52.396;10.696;2022-10-26T08:54:50;13.60;99.90
29551;DHT22;16488;52.396;10.696;2022-10-26T08:57:25;13.70;99.90
29551;DHT22;16488;52.396;10.696;2022-10-26T09:02:20;14.00;99.90
29551;DHT22;16488;52.396;10.696;2022-10-26T09:04:46;14.10;99.90
29551;DHT22;16488;52.396;10.696;2022-10-26T09:18:45;14.90;99.90
29551;DHT22;16488;52.396;10.696;2022-10-26T09:21:48;15.10;99.90
29551;DHT22;16488;52.396;10.696;2022-10-26T09:24:32;15.20;99.90
29551;DHT22;16488;52.396;10.696;2022-10-26T09:29:48;15.10;99.90
29551;DHT22;16488;52.396;10.696;2022-10-26T09:32:25;15.10;99.90
29551;DHT22;16488;52.396;10.696;2022-10-26T09:34:57;15.00;99.90
29551;DHT22;16488;52.396;10.696;2022-10-26T09:37:27;15.00;99.90
29551;DHT22;16488;52.396;10.696;2022-10-26T09:40:05;15.00;99.90
29551;DHT22;16488;52.396;10.696;2022-10-26T09:42:43;15.00;99.90
29551;DHT22;16488;52.396;10.696;2022-10-26T09:45:23;14.90;99.90
29551;DHT22;16488;52.396;10.696;2022-10-26T09:47:51;14.90;99.90
29551;DHT22;16488;52.396;10.696;2022-10-26T09:52:47;15.00;99.90
29551;DHT22;16488;52.396;10.696;2022-10-26T09:55:13;15.10;99.90
29551;DHT22;16488;52.396;10.696;2022-10-26T09:57:41;15.20;99.90
29551;DHT22;16488;52.396;10.696;2022-10-26T10:00:18;15.20;99.90
29551;DHT22;16488;52.396;10.696;2022-10-26T10:02:44;15.20;99.90
29551;DHT22;16488;52.396;10.696;2022-10-26T10:08:09;15.30;99.90
29551;DHT22;16488;52.396;10.696;2022-10-26T10:10:35;15.20;99.90
29551;DHT22;16488;52.396;10.696;2022-10-26T10:13:14;15.20;99.90
29551;DHT22;16488;52.396;10.696;2022-10-26T10:15:53;15.20;99.90
29551;DHT22;16488;52.396;10.696;2022-10-26T10:18:20;15.30;99.90
29551;DHT22;16488;52.396;10.696;2022-10-26T10:20:53;15.30;99.90
29551;DHT22;16488;52.396;10.696;2022-10-26T10:23:29;15.30;99.90
29551;DHT22;16488;52.396;10.696;2022-10-26T10:26:05;15.40;99.90
29551;DHT22;16488;52.396;10.696;2022-10-26T10:28:31;15.40;99.90
29551;DHT22;16488;52.396;10.696;2022-10-26T10:31:17;15.40;99.90
29551;DHT22;16488;52.396;10.696;2022-10-26T10:33:42;15.50;99.90
29551;DHT22;16488;52.396;10.696;2022-10-26T10:36:15;15.50;99.90
29551;DHT22;16488;52.396;10.696;2022-10-26T10:38:45;15.50;99.90
29551;DHT22;16488;52.396;10.696;2022-10-26T10:41:20;15.50;99.90
29551;DHT22;16488;52.396;10.696;2022-10-26T10:43:52;15.50;99.90
29551;DHT22;16488;52.396;10.696;2022-10-26T10:46:20;15.60;99.90
29551;DHT22;16488;52.396;10.696;2022-10-26T10:48:53;15.60;99.90
29551;DHT22;16488;52.396;10.696;2022-10-26T10:51:22;15.70;99.90
29551;DHT22;16488;52.396;10.696;2022-10-26T10:53:51;15.70;99.90
29551;DHT22;16488;52.396;10.696;2022-10-26T10:56:22;15.80;99.90
29551;DHT22;16488;52.396;10.696;2022-10-26T11:01:30;15.90;99.90
29551;DHT22;16488;52.396;10.696;2022-10-26T11:06:37;16.10;99.90
29551;DHT22;16488;52.396;10.696;2022-10-26T11:09:15;16.10;99.90
29551;DHT22;16488;52.396;10.696;2022-10-26T11:11:49;16.20;99.90
29551;DHT22;16488;52.396;10.696;2022-10-26T11:14:27;16.30;99.90
29551;DHT22;16488;52.396;10.696;2022-10-26T11:16:58;16.40;99.90
29551;DHT22;16488;52.396;10.696;2022-10-26T11:22:33;16.70;99.90
29551;DHT22;16488;52.396;10.696;2022-10-26T11:25:24;16.90;99.90
29551;DHT22;16488;52.396;10.696;2022-10-26T11:27:53;17.10;99.90
29551;DHT22;16488;52.396;10.696;2022-10-26T11:30:20;17.20;99.90
29551;DHT22;16488;52.396;10.696;2022-10-26T11:33:00;17.10;99.90
29551;DHT22;16488;52.396;10.696;2022-10-26T11:35:39;17.10;99.90
29551;DHT22;16488;52.396;10.696;2022-10-26T11:38:29;17.20;99.90
29551;DHT22;16488;52.396;10.696;2022-10-26T11:41:13;17.10;99.90
29551;DHT22;16488;52.396;10.696;2022-10-26T11:43:46;17.10;99.90
29551;DHT22;16488;52.396;10.696;2022-10-26T11:51:37;17.00;99.90
29551;DHT22;16488;52.396;10.696;2022-10-26T11:54:11;17.00;99.90
29551;DHT22;16488;52.396;10.696;2022-10-26T11:56:43;17.00;99.90
29551;DHT22;16488;52.396;10.696;2022-10-26T11:59:19;17.00;99.90
29551;DHT22;16488;52.396;10.696;2022-10-26T12:01:54;17.10;99.90
29551;DHT22;16488;52.396;10.696;2022-10-26T12:04:28;17.10;99.90
29551;DHT22;16488;52.396;10.696;2022-10-26T12:06:55;17.10;99.90
29551;DHT22;16488;52.396;10.696;2022-10-26T12:09:29;17.20;99.90
29551;DHT22;16488;52.396;10.696;2022-10-26T12:12:06;17.20;99.90
29551;DHT22;16488;52.396;10.696;2022-10-26T12:14:41;17.20;99.90
29551;DHT22;16488;52.396;10.696;2022-10-26T12:17:14;17.20;99.90
29551;DHT22;16488;52.396;10.696;2022-10-26T12:20:17;17.20;99.90
29551;DHT22;16488;52.396;10.696;2022-10-26T12:22:37;17.20;99.90
29551;DHT22;16488;52.396;10.696;2022-10-26T12:30:39;17.20;99.90
29551;DHT22;16488;52.396;10.696;2022-10-26T12:33:27;17.30;99.90
29551;DHT22;16488;52.396;10.696;2022-10-26T13:04:24;19.50;99.90
29551;DHT22;16488;52.396;10.696;2022-10-26T13:07:21;19.50;99.90
29551;DHT22;16488;52.396;10.696;2022-10-26T13:12:36;19.20;99.90
29551;DHT22;16488;52.396;10.696;2022-10-26T13:15:05;19.00;99.90
29551;DHT22;16488;52.396;10.696;2022-10-26T13:17:55;18.80;99.90
29551;DHT22;16488;52.396;10.696;2022-10-26T13:20:22;18.70;99.90
29551;DHT22;16488;52.396;10.696;2022-10-26T13:40:24;18.50;99.90
29551;DHT22;16488;52.396;10.696;2022-10-26T13:42:58;18.00;99.90
29551;DHT22;16488;52.396;10.696;2022-10-26T13:45:45;17.90;99.90
29551;DHT22;16488;52.396;10.696;2022-10-26T13:48:19;17.90;99.90
29551;DHT22;16488;52.396;10.696;2022-10-26T13:50:53;17.80;99.90
29551;DHT22;16488;52.396;10.696;2022-10-26T13:53:24;17.80;99.90
29551;DHT22;16488;52.396;10.696;2022-10-26T13:55:59;17.80;99.90
29551;DHT22;16488;52.396;10.696;2022-10-26T13:58:44;17.80;99.90
29551;DHT22;16488;52.396;10.696;2022-10-26T14:01:12;17.80;99.90
29551;DHT22;16488;52.396;10.696;2022-10-26T14:03:40;17.80;99.90
29551;DHT22;16488;52.396;10.696;2022-10-26T14:06:31;17.80;99.90
29551;DHT22;16488;52.396;10.696;2022-10-26T14:09:04;17.80;99.90
29551;DHT22;16488;52.396;10.696;2022-10-26T14:11:41;18.00;99.90
29551;DHT22;16488;52.396;10.696;2022-10-26T14:14:13;18.20;99.90
29551;DHT22;16488;52.396;10.696;2022-10-26T14:16:41;18.30;99.90
29551;DHT22;16488;52.396;10.696;2022-10-26T14:19:19;18.30;99.90
29551;DHT22;16488;52.396;10.696;2022-10-26T14:21:46;18.20;99.90
29551;DHT22;16488;52.396;10.696;2022-10-26T14:24:29;18.10;99.90
29551;DHT22;16488;52.396;10.696;2022-10-26T14:26:55;18.20;99.90
29551;DHT22;16488;52.396;10.696;2022-10-26T14:29:23;18.30;99.90
29551;DHT22;16488;52.396;10.696;2022-10-26T14:31:52;18.50;99.90
29551;DHT22;16488;52.396;10.696;2022-10-26T14:34:23;18.50;99.90
29551;DHT22;16488;52.396;10.696;2022-10-26T14:37:00;18.50;99.90
29551;DHT22;16488;52.396;10.696;2022-10-26T14:39:37;18.40;99.90
29551;DHT22;16488;52.396;10.696;2022-10-26T14:42:24;18.30;99.90
29551;DHT22;16488;52.396;10.696;2022-10-26T14:44:50;18.20;99.90
29551;DHT22;16488;52.396;10.696;2022-10-26T14:47:24;18.10;99.90
29551;DHT22;16488;52.396;10.696;2022-10-26T14:49:51;18.10;99.90
29551;DHT22;16488;52.396;10.696;2022-10-26T14:52:26;18.20;99.90
29551;DHT22;16488;52.396;10.696;2022-10-26T14:55:11;18.20;99.90
29551;DHT22;16488;52.396;10.696;2022-10-26T14:57:39;18.20;99.90
29551;DHT22;16488;52.396;10.696;2022-10-26T15:00:22;18.30;99.90
29551;DHT22;16488;52.396;10.696;2022-10-26T15:02:56;18.20;99.90
29551;DHT22;16488;52.396;10.696;2022-10-26T15:05:32;18.20;99.90
29551;DHT22;16488;52.396;10.696;2022-10-26T15:07:59;18.10;99.90
29551;DHT22;16488;52.396;10.696;2022-10-26T15:15:48;17.80;99.90
29551;DHT22;16488;52.396;10.696;2022-10-26T15:18:26;17.70;99.90
29551;DHT22;16488;52.396;10.696;2022-10-26T15:20:53;17.60;99.90
29551;DHT22;16488;52.396;10.696;2022-10-26T15:23:20;17.50;99.90
29551;DHT22;16488;52.396;10.696;2022-10-26T15:26:01;17.40;99.90
29551;DHT22;16488;52.396;10.696;2022-10-26T15:33:41;17.20;99.90
29551;DHT22;16488;52.396;10.696;2022-10-26T15:38:42;16.90;99.90
29551;DHT22;16488;52.396;10.696;2022-10-26T15:41:30;16.80;99.90
29551;DHT22;16488;52.396;10.696;2022-10-26T15:43:58;16.70;99.90
29551;DHT22;16488;52.396;10.696;2022-10-26T15:46:29;16.60;99.90
29551;DHT22;16488;52.396;10.696;2022-10-26T15:48:59;16.50;99.90
29551;DHT22;16488;52.396;10.696;2022-10-26T15:51:25;16.40;99.90
29551;DHT22;16488;52.396;10.696;2022-10-26T15:53:57;16.30;99.90
29551;DHT22;16488;52.396;10.696;2022-10-26T15:56:26;16.10;99.90
29551;DHT22;16488;52.396;10.696;2022-10-26T15:58:53;16.10;99.90
29551;DHT22;16488;52.396;10.696;2022-10-26T16:01:22;15.90;99.90
29551;DHT22;16488;52.396;10.696;2022-10-26T16:03:48;15.70;99.90
29551;DHT22;16488;52.396;10.696;2022-10-26T16:06:17;15.60;99.90
29551;DHT22;16488;52.396;10.696;2022-10-26T16:08:50;15.40;99.90
29551;DHT22;16488;52.396;10.696;2022-10-26T16:11:16;15.40;99.90
29551;DHT22;16488;52.396;10.696;2022-10-26T16:13:42;15.40;99.90
29551;DHT22;16488;52.396;10.696;2022-10-26T16:16:17;15.30;99.90
29551;DHT22;16488;52.396;10.696;2022-10-26T16:18:51;15.30;99.90
29551;DHT22;16488;52.396;10.696;2022-10-26T16:21:19;15.10;99.90
29551;DHT22;16488;52.396;10.696;2022-10-26T16:23:46;15.00;99.90
29551;DHT22;16488;52.396;10.696;2022-10-26T16:26:12;14.90;99.90
29551;DHT22;16488;52.396;10.696;2022-10-26T16:28:38;14.70;99.90
29551;DHT22;16488;52.396;10.696;2022-10-26T16:31:12;14.70;99.90
29551;DHT22;16488;52.396;10.696;2022-10-26T16:33:41;14.60;99.90
29551;DHT22;16488;52.396;10.696;2022-10-26T16:36:10;14.40;99.90
29551;DHT22;16488;52.396;10.696;2022-10-26T16:38:39;14.40;99.90
29551;DHT22;16488;52.396;10.696;2022-10-26T16:43:33;14.10;99.90
29551;DHT22;16488;52.396;10.696;2022-10-26T16:45:59;13.90;99.90
29551;DHT22;16488;52.396;10.696;2022-10-26T16:48:24;13.80;99.90
29551;DHT22;16488;52.396;10.696;2022-10-26T16:50:50;13.80;99.90
29551;DHT22;16488;52.396;10.696;2022-10-26T16:53:16;13.60;99.90
29551;DHT22;16488;52.396;10.696;2022-10-26T16:55:41;13.60;99.90
29551;DHT22;16488;52.396;10.696;2022-10-26T16:58:08;13.60;99.90
29551;DHT22;16488;52.396;10.696;2022-10-26T17:00:35;13.60;99.90
29551;DHT22;16488;52.396;10.696;2022-10-26T17:03:01;13.50;99.90
29551;DHT22;16488;52.396;10.696;2022-10-26T17:05:27;13.40;99.90
29551;DHT22;16488;52.396;10.696;2022-10-26T17:07:53;13.30;99.90
29551;DHT22;16488;52.396;10.696;2022-10-26T17:10:19;13.20;99.90
29551;DHT22;16488;52.396;10.696;2022-10-26T17:12:44;13.10;99.90
29551;DHT22;16488;52.396;10.696;2022-10-26T17:15:10;13.00;99.90
29551;DHT22;16488;52.396;10.696;2022-10-26T17:17:36;12.90;99.90
29551;DHT22;16488;52.396;10.696;2022-10-26T17:20:01;12.90;99.90
29551;DHT22;16488;52.396;10.696;2022-10-26T17:22:27;12.90;99.90
29551;DHT22;16488;52.396;10.696;2022-10-26T17:24:58;12.90;99.90
29551;DHT22;16488;52.396;10.696;2022-10-26T17:27:27;12.80;99.90
29551;DHT22;16488;52.396;10.696;2022-10-26T17:29:52;12.60;99.90
29551;DHT22;16488;52.396;10.696;2022-10-26T17:32:21;12.60;99.90
29551;DHT22;16488;52.396;10.696;2022-10-26T17:34:47;12.60;99.90
29551;DHT22;16488;52.396;10.696;2022-10-26T17:37:12;12.60;99.90
29551;DHT22;16488;52.396;10.696;2022-10-26T17:39:38;12.50;99.90
29551;DHT22;16488;52.396;10.696;2022-10-26T17:42:03;12.50;99.90
29551;DHT22;16488;52.396;10.696;2022-10-26T17:44:29;12.40;99.90
29551;DHT22;16488;52.396;10.696;2022-10-26T17:46:55;12.30;99.90
29551;DHT22;16488;52.396;10.696;2022-10-26T17:49:20;12.30;99.90
29551;DHT22;16488;52.396;10.696;2022-10-26T17:51:46;12.20;99.90
29551;DHT22;16488;52.396;10.696;2022-10-26T17:54:11;12.10;99.90
29551;DHT22;16488;52.396;10.696;2022-10-26T17:56:37;12.10;99.90
29551;DHT22;16488;52.396;10.696;2022-10-26T17:59:04;12.00;99.90
29551;DHT22;16488;52.396;10.696;2022-10-26T18:01:30;12.00;99.90
29551;DHT22;16488;52.396;10.696;2022-10-26T18:03:56;12.00;99.90
29551;DHT22;16488;52.396;10.696;2022-10-26T18:06:22;11.90;99.90
29551;DHT22;16488;52.396;10.696;2022-10-26T18:08:48;11.90;99.90
29551;DHT22;16488;52.396;10.696;2022-10-26T18:11:16;11.80;99.90